Terminal Aerodrome Forecast
Issued by NWS Wilmington, NC

Home | Current Version | Previous Version | Text Only | Print | Product List | Glossary On
Versions: 1 2 3 4 5 6 7 8 9 10 11 12 13
255
FTUS42 KILM 280939 AAA
TAFLBT
TAF AMD
KLBT 280939Z 2810/0106 VRB03KT 6SM BR VCSH BKN035
     FM281100 VRB03KT 2SM BR BKN015
     FM281300 13004KT P6SM BKN015
     FM281700 17009KT P6SM BKN030
     FM281800 17009KT P6SM BKN250
     FM010500 19010KT P6SM BKN010=

USA.gov is the U.S. government's official web portal to all federal, state and local government web resources and services.